Time;durP1;ratioP1;P1;durP2;ratioP2;P2;SDS_P1;SDS_P2;PMS_P1;PMS_P2;Temp;Humidity;BMP_temperature;BMP_pressure;BME280_temperature;BME280_humidity;BME280_pressure;Samples;Min_cycle;Max_cycle;Signal;HPM_P1;HPM_P2
2022/07/22 00:01:40;;;;;;;18.97;17.23;;;18.70;99.90;;;;;;5044385;28;20198;-56
2022/07/22 00:04:06;;;;;;;19.47;17.67;;;18.70;99.90;;;;;;5045415;28;20183;-54
2022/07/22 00:06:31;;;;;;;18.90;17.10;;;18.70;99.90;;;;;;5034513;28;20175;-50
2022/07/22 00:08:57;;;;;;;19.73;17.77;;;18.60;99.90;;;;;;5036285;28;20259;-50
2022/07/22 00:11:23;;;;;;;19.13;17.50;;;18.60;99.90;;;;;;5044669;28;20221;-54
2022/07/22 00:13:49;;;;;;;19.47;17.67;;;18.70;99.90;;;;;;5046287;28;20612;-52
2022/07/22 00:16:15;;;;;;;20.07;18.27;;;18.70;99.90;;;;;;5038100;28;20437;-54
2022/07/22 00:18:41;;;;;;;20.23;18.33;;;18.60;99.90;;;;;;5035388;28;20440;-55
2022/07/22 00:21:06;;;;;;;19.87;18.17;;;18.60;99.90;;;;;;5036501;28;20781;-51
2022/07/22 00:23:32;;;;;;;19.80;18.10;;;18.50;99.90;;;;;;5029537;28;21054;-54
2022/07/22 00:25:58;;;;;;;21.17;19.13;;;18.50;99.90;;;;;;5044861;28;20204;-52
2022/07/22 00:28:23;;;;;;;20.80;18.97;;;18.50;99.90;;;;;;5034799;28;20996;-50
2022/07/22 00:30:49;;;;;;;20.90;19.00;;;18.40;99.90;;;;;;5035388;28;20276;-53
2022/07/22 00:33:15;;;;;;;20.53;18.63;;;18.50;99.90;;;;;;5035139;28;20178;-53
2022/07/22 00:35:41;;;;;;;19.70;17.87;;;18.40;99.90;;;;;;5037859;28;20190;-54
2022/07/22 00:38:06;;;;;;;19.10;17.40;;;18.40;99.90;;;;;;5033638;28;20191;-54
2022/07/22 00:40:32;;;;;;;19.33;17.53;;;18.40;99.90;;;;;;5035619;28;20186;-52
2022/07/22 00:42:57;;;;;;;19.40;17.70;;;18.40;99.90;;;;;;5042143;28;20651;-54
2022/07/22 00:45:24;;;;;;;18.93;17.20;;;18.40;99.90;;;;;;5038515;28;20206;-52
2022/07/22 00:47:49;;;;;;;20.93;19.00;;;18.40;99.90;;;;;;5030717;28;20213;-54
2022/07/22 00:50:16;;;;;;;19.93;18.03;;;18.30;99.90;;;;;;5048498;28;20437;-50
2022/07/22 00:52:43;;;;;;;20.03;18.23;;;18.30;99.90;;;;;;5032555;28;20199;-55
2022/07/22 00:55:09;;;;;;;20.83;19.03;;;18.30;99.90;;;;;;5041628;28;20484;-53
2022/07/22 00:57:35;;;;;;;21.13;19.03;;;18.30;99.90;;;;;;5041569;28;20437;-52
2022/07/22 01:00:01;;;;;;;20.73;18.80;;;18.30;99.90;;;;;;5035469;28;20789;-55
2022/07/22 01:02:26;;;;;;;21.50;19.60;;;18.20;99.90;;;;;;5028968;28;20241;-51
2022/07/22 01:04:52;;;;;;;20.20;18.50;;;18.20;99.90;;;;;;5040653;28;20421;-54
2022/07/22 01:07:17;;;;;;;21.53;19.43;;;18.20;99.90;;;;;;5033598;28;20201;-49
2022/07/22 01:09:44;;;;;;;21.90;19.87;;;18.10;99.90;;;;;;5050428;28;20239;-53
2022/07/22 01:12:10;;;;;;;21.67;19.67;;;18.10;99.90;;;;;;5039452;28;20209;-52
2022/07/22 01:14:36;;;;;;;21.13;19.23;;;18.10;99.90;;;;;;5034251;28;20428;-52
2022/07/22 01:17:02;;;;;;;21.83;19.83;;;18.10;99.90;;;;;;5037503;28;20853;-55
2022/07/22 01:19:27;;;;;;;20.20;18.40;;;18.10;99.90;;;;;;5041066;28;20439;-54
2022/07/22 01:21:53;;;;;;;21.17;19.30;;;18.20;99.90;;;;;;5032778;28;20194;-52
2022/07/22 01:24:19;;;;;;;21.83;19.90;;;18.10;99.90;;;;;;5032702;28;20527;-51
2022/07/22 01:26:45;;;;;;;21.43;19.50;;;18.10;99.90;;;;;;5030893;28;20179;-53
2022/07/22 01:29:10;;;;;;;21.23;19.23;;;18.00;99.90;;;;;;5033606;28;20193;-51
2022/07/22 01:31:36;;;;;;;21.47;19.67;;;18.00;99.90;;;;;;5031227;28;20228;-53
2022/07/22 01:34:02;;;;;;;21.40;19.40;;;18.00;99.90;;;;;;5032480;28;20189;-52
2022/07/22 01:36:28;;;;;;;21.60;19.70;;;18.00;99.90;;;;;;5028573;28;20264;-52
2022/07/22 01:38:53;;;;;;;21.57;19.57;;;17.90;99.90;;;;;;5039039;28;20440;-55
2022/07/22 01:41:19;;;;;;;21.87;19.97;;;17.90;99.90;;;;;;5037087;28;20187;-53
2022/07/22 01:43:45;;;;;;;22.57;20.60;;;17.90;99.90;;;;;;5034706;28;20194;-51
2022/07/22 01:46:10;;;;;;;23.73;21.63;;;17.80;99.90;;;;;;5042192;28;20194;-54
2022/07/22 01:48:36;;;;;;;22.40;20.33;;;17.80;99.90;;;;;;5032096;28;21131;-55
2022/07/22 01:51:02;;;;;;;21.70;19.73;;;17.80;99.90;;;;;;5039698;28;20648;-52
2022/07/22 01:53:27;;;;;;;22.60;20.50;;;17.90;99.90;;;;;;5042560;28;20188;-55
2022/07/22 01:55:53;;;;;;;22.33;20.20;;;17.80;99.90;;;;;;5040958;28;20436;-53
2022/07/22 01:58:19;;;;;;;21.63;19.73;;;17.80;99.90;;;;;;5028015;28;20630;-55
2022/07/22 02:00:44;;;;;;;22.67;20.13;;;17.70;99.90;;;;;;5029454;28;20256;-54
2022/07/22 02:03:10;;;;;;;23.57;21.27;;;17.80;99.90;;;;;;5034479;28;20214;-54
2022/07/22 02:05:36;;;;;;;24.20;21.80;;;17.70;99.90;;;;;;5031605;28;20469;-50
2022/07/22 02:08:08;;;;;;;21.93;19.90;;;17.70;99.90;;;;;;5026806;28;20537;-50
2022/07/22 02:10:33;;;;;;;23.60;21.40;;;17.70;99.90;;;;;;5037807;28;20443;-51
2022/07/22 02:13:00;;;;;;;23.13;21.03;;;17.60;99.90;;;;;;5041814;28;20830;-53
2022/07/22 02:15:27;;;;;;;22.77;20.80;;;17.60;99.90;;;;;;5033505;28;20184;-53
2022/07/22 02:17:53;;;;;;;22.47;20.40;;;17.70;99.90;;;;;;5035569;28;20506;-55
2022/07/22 02:20:20;;;;;;;23.43;21.20;;;17.70;99.90;;;;;;5026299;28;20428;-51
2022/07/22 02:22:47;;;;;;;22.20;20.10;;;17.60;99.90;;;;;;5042032;28;20427;-54
2022/07/22 02:25:12;;;;;;;22.50;20.30;;;17.60;99.90;;;;;;5027192;28;20433;-51
2022/07/22 02:27:38;;;;;;;23.37;21.17;;;17.70;99.90;;;;;;5029569;28;20465;-52
2022/07/22 02:30:05;;;;;;;22.30;20.10;;;17.70;99.90;;;;;;5032153;28;20199;-55
2022/07/22 02:32:31;;;;;;;22.40;20.13;;;17.70;99.90;;;;;;5028315;28;20468;-54
2022/07/22 02:34:56;;;;;;;23.80;21.50;;;17.60;99.90;;;;;;5028799;28;20445;-54
2022/07/22 02:37:22;;;;;;;23.27;21.07;;;17.60;99.90;;;;;;5027784;28;20181;-51
2022/07/22 02:39:48;;;;;;;23.47;21.23;;;17.60;99.90;;;;;;5036402;28;20649;-56
2022/07/22 02:42:15;;;;;;;24.13;21.83;;;17.60;99.90;;;;;;5032257;28;20201;-51
2022/07/22 02:44:40;;;;;;;23.60;21.30;;;17.60;99.90;;;;;;5034252;28;20724;-52
2022/07/22 02:47:06;;;;;;;24.03;21.63;;;17.50;99.90;;;;;;5035138;28;20523;-51
2022/07/22 02:49:32;;;;;;;23.57;21.30;;;17.50;99.90;;;;;;5036036;28;20193;-50
2022/07/22 02:51:58;;;;;;;23.13;20.83;;;17.50;99.90;;;;;;5046072;28;20286;-50
2022/07/22 02:54:24;;;;;;;23.13;20.93;;;17.50;99.90;;;;;;5039975;28;20436;-56
2022/07/22 02:56:49;;;;;;;24.53;22.13;;;17.50;99.90;;;;;;5037983;28;20240;-51
2022/07/22 02:59:16;;;;;;;24.17;21.77;;;17.40;99.90;;;;;;5033473;28;20233;-50
2022/07/22 03:01:42;;;;;;;23.97;21.57;;;17.40;99.90;;;;;;5041308;28;20196;-55
2022/07/22 03:04:08;;;;;;;24.00;21.90;;;17.30;99.90;;;;;;5051220;28;20770;-52
2022/07/22 03:06:33;;;;;;;23.70;21.50;;;17.40;99.90;;;;;;5039107;28;20449;-53
2022/07/22 03:08:59;;;;;;;24.17;21.70;;;17.30;99.90;;;;;;5031966;28;20198;-54
2022/07/22 03:11:24;;;;;;;24.13;21.93;;;17.30;99.90;;;;;;5033239;28;20271;-54
2022/07/22 03:13:50;;;;;;;24.47;22.13;;;17.30;99.90;;;;;;5043361;28;20215;-52
2022/07/22 03:16:15;;;;;;;24.40;21.67;;;17.20;99.90;;;;;;5029852;28;20186;-53
2022/07/22 03:18:41;;;;;;;23.33;21.00;;;17.20;99.90;;;;;;5033160;28;20186;-49
2022/07/22 03:21:07;;;;;;;22.47;20.30;;;17.20;99.90;;;;;;5031578;28;20185;-53
2022/07/22 03:23:32;;;;;;;24.20;21.90;;;17.20;99.90;;;;;;5031939;28;20252;-54
2022/07/22 03:25:58;;;;;;;23.80;21.60;;;17.20;99.90;;;;;;5032294;28;20191;-52
2022/07/22 03:28:23;;;;;;;23.63;21.43;;;17.20;99.90;;;;;;5031778;28;20587;-49
2022/07/22 03:30:49;;;;;;;24.40;21.90;;;17.20;99.90;;;;;;5030394;28;20627;-50
2022/07/22 03:33:14;;;;;;;22.87;20.57;;;17.20;99.90;;;;;;5032589;28;20214;-54
2022/07/22 03:35:40;;;;;;;24.20;21.80;;;17.20;99.90;;;;;;5032581;28;20189;-55
2022/07/22 03:38:06;;;;;;;24.13;21.90;;;17.20;99.90;;;;;;5032563;28;20209;-51
2022/07/22 03:40:32;;;;;;;23.37;21.13;;;17.20;99.90;;;;;;5044703;28;20192;-53
2022/07/22 03:42:57;;;;;;;23.10;20.63;;;17.20;99.90;;;;;;5039009;28;20450;-52
2022/07/22 03:45:23;;;;;;;23.57;21.27;;;17.20;99.90;;;;;;5035122;28;20193;-54
2022/07/22 03:47:48;;;;;;;22.97;20.57;;;17.20;99.90;;;;;;5030625;28;20193;-53
2022/07/22 03:50:14;;;;;;;24.40;22.00;;;17.20;99.90;;;;;;5029554;28;20912;-52
2022/07/22 03:52:40;;;;;;;22.07;20.07;;;17.20;99.90;;;;;;5039177;28;20303;-50
2022/07/22 03:55:07;;;;;;;24.87;22.47;;;17.20;99.90;;;;;;5038959;28;20202;-52
2022/07/22 03:57:33;;;;;;;22.80;20.60;;;17.20;99.90;;;;;;5036148;28;20188;-52
2022/07/22 03:59:58;;;;;;;25.17;22.67;;;17.20;99.90;;;;;;5032341;28;20490;-52
2022/07/22 04:02:24;;;;;;;25.23;22.83;;;17.20;99.90;;;;;;5038618;28;20312;-51
2022/07/22 04:04:50;;;;;;;27.20;24.37;;;17.20;99.90;;;;;;5047749;28;20184;-51
2022/07/22 04:07:15;;;;;;;23.90;21.60;;;17.20;99.90;;;;;;5030610;28;20193;-51
2022/07/22 04:09:41;;;;;;;24.60;22.17;;;17.20;99.90;;;;;;5029869;28;20707;-55
2022/07/22 04:12:07;;;;;;;25.00;22.70;;;17.10;99.90;;;;;;5033882;28;20217;-52
2022/07/22 04:14:32;;;;;;;23.30;21.07;;;17.20;99.90;;;;;;5030598;28;20186;-51
2022/07/22 04:16:58;;;;;;;24.10;21.93;;;17.20;99.90;;;;;;5030231;28;20444;-52
2022/07/22 04:19:23;;;;;;;24.23;21.93;;;17.20;99.90;;;;;;5025664;28;20221;-51
2022/07/22 04:21:49;;;;;;;24.53;22.23;;;17.20;99.90;;;;;;5022683;28;20189;-53
2022/07/22 04:24:14;;;;;;;24.50;22.07;;;17.30;99.90;;;;;;5021278;28;20201;-53
2022/07/22 04:26:40;;;;;;;22.30;20.20;;;17.30;99.90;;;;;;5022591;28;20205;-55
2022/07/22 04:29:06;;;;;;;23.80;21.60;;;17.30;99.90;;;;;;5033180;28;20193;-51
2022/07/22 04:31:32;;;;;;;23.57;21.43;;;17.30;99.90;;;;;;5035871;28;20218;-53
2022/07/22 04:33:58;;;;;;;21.57;19.57;;;17.30;99.90;;;;;;5026076;28;20212;-51
2022/07/22 04:36:24;;;;;;;20.90;19.10;;;17.40;99.90;;;;;;5022165;28;20428;-52
2022/07/22 04:38:49;;;;;;;20.70;18.57;;;17.50;99.90;;;;;;5028182;28;21033;-49
2022/07/22 04:41:15;;;;;;;21.77;19.80;;;17.50;99.90;;;;;;5024838;28;20198;-51
2022/07/22 04:43:41;;;;;;;21.20;19.20;;;17.50;99.90;;;;;;5033768;28;20197;-55
2022/07/22 04:46:07;;;;;;;21.67;19.63;;;17.60;99.90;;;;;;5037755;28;20432;-51
2022/07/22 04:48:33;;;;;;;20.33;18.50;;;17.70;99.90;;;;;;5030623;28;20194;-52
2022/07/22 04:51:03;;;;;;;19.53;17.77;;;17.80;99.90;;;;;;5030042;28;20851;-55
2022/07/22 04:53:28;;;;;;;20.00;18.10;;;17.90;99.90;;;;;;5031110;28;20175;-53
2022/07/22 04:55:54;;;;;;;20.03;17.70;;;17.90;99.90;;;;;;5031164;28;20390;-52
2022/07/22 04:58:20;;;;;;;18.53;16.93;;;18.00;99.90;;;;;;5030412;28;20936;-54
2022/07/22 05:00:46;;;;;;;19.33;17.63;;;18.00;99.90;;;;;;5029567;28;20246;-52
2022/07/22 05:03:12;;;;;;;17.20;15.70;;;18.10;99.90;;;;;;5030503;28;20171;-48
2022/07/22 05:05:38;;;;;;;19.13;17.27;;;18.20;99.90;;;;;;5029908;28;20857;-52
2022/07/22 05:08:04;;;;;;;18.97;17.27;;;18.30;99.90;;;;;;5030751;28;20489;-54
2022/07/22 05:10:30;;;;;;;18.47;16.77;;;18.30;99.90;;;;;;5030079;28;20175;-52
2022/07/22 05:12:55;;;;;;;18.00;16.40;;;18.30;99.90;;;;;;5030633;28;20755;-54
2022/07/22 05:15:21;;;;;;;18.00;16.50;;;18.40;99.90;;;;;;5028723;28;20262;-55
2022/07/22 05:17:46;;;;;;;18.57;16.87;;;18.60;99.90;;;;;;5030663;28;20238;-52
2022/07/22 05:20:13;;;;;;;18.07;16.37;;;18.60;99.90;;;;;;5030591;28;20262;-53
2022/07/22 05:22:38;;;;;;;17.00;15.60;;;18.70;99.90;;;;;;5029754;28;20199;-53
2022/07/22 05:25:05;;;;;;;18.27;16.70;;;18.70;99.90;;;;;;5030592;28;20800;-53
2022/07/22 05:27:30;;;;;;;17.20;15.50;;;18.80;98.10;;;;;;5029616;28;20299;-55
2022/07/22 05:29:56;;;;;;;17.47;15.93;;;18.90;96.40;;;;;;5031880;28;20540;-55
2022/07/22 05:32:22;;;;;;;17.10;15.60;;;19.00;85.50;;;;;;5033892;28;20565;-55
2022/07/22 05:34:48;;;;;;;16.13;14.53;;;19.10;79.10;;;;;;5043404;28;20416;-54
2022/07/22 05:37:15;;;;;;;15.77;14.47;;;19.20;67.00;;;;;;5039937;28;20217;-54
2022/07/22 05:39:42;;;;;;;15.53;14.23;;;19.30;47.60;;;;;;5032235;28;20171;-51
2022/07/22 05:42:07;;;;;;;15.63;14.27;;;19.40;45.80;;;;;;5028077;28;20517;-55
2022/07/22 05:44:33;;;;;;;15.40;14.10;;;19.50;38.60;;;;;;5030456;28;20420;-56
2022/07/22 05:46:59;;;;;;;16.47;15.07;;;19.60;36.10;;;;;;5026821;28;20201;-52
2022/07/22 05:49:26;;;;;;;16.93;15.33;;;19.70;29.30;;;;;;5029344;28;20229;-51
2022/07/22 05:51:52;;;;;;;16.20;14.57;;;19.80;24.70;;;;;;5029294;28;20282;-48
2022/07/22 05:54:18;;;;;;;16.43;14.93;;;19.90;22.60;;;;;;5030016;28;20417;-56
2022/07/22 05:56:44;;;;;;;15.00;13.60;;;20.00;18.60;;;;;;5029417;28;20908;-53
2022/07/22 05:59:09;;;;;;;14.33;13.13;;;20.20;16.80;;;;;;5029752;28;20632;-54
2022/07/22 06:01:35;;;;;;;15.80;14.50;;;20.20;8.30;;;;;;5030126;28;20487;-55
2022/07/22 06:04:00;;;;;;;14.60;13.40;;;20.40;2.50;;;;;;5028285;28;20190;-50
2022/07/22 06:06:26;;;;;;;14.43;13.10;;;20.40;1.00;;;;;;5029632;28;20178;-51
2022/07/22 06:08:51;;;;;;;15.27;13.77;;;20.50;1.00;;;;;;5028756;28;20210;-56
2022/07/22 06:11:17;;;;;;;13.83;12.63;;;20.70;1.00;;;;;;5029586;28;20246;-50
2022/07/22 06:13:42;;;;;;;16.57;14.10;;;20.80;1.00;;;;;;5029060;28;20209;-48
2022/07/22 06:16:08;;;;;;;12.80;11.80;;;20.80;1.00;;;;;;5027965;28;20531;-51
2022/07/22 06:18:35;;;;;;;14.33;12.93;;;20.90;1.00;;;;;;5028238;28;20181;-55
2022/07/22 06:21:01;;;;;;;14.00;12.77;;;21.00;1.00;;;;;;5029762;28;20160;-56
2022/07/22 06:23:27;;;;;;;13.87;12.70;;;21.00;1.00;;;;;;5028293;28;20445;-55
2022/07/22 06:25:52;;;;;;;12.87;11.63;;;21.10;1.00;;;;;;5028391;28;20198;-54
2022/07/22 06:28:18;;;;;;;15.27;13.77;;;21.30;1.00;;;;;;5028805;28;20190;-52
2022/07/22 06:30:43;;;;;;;14.10;12.90;;;21.40;1.00;;;;;;5026991;28;20284;-52
2022/07/22 06:33:09;;;;;;;13.40;12.20;;;21.50;1.00;;;;;;5032824;28;20238;-52
2022/07/22 06:35:37;;;;;;;13.53;12.33;;;21.60;1.00;;;;;;5035315;28;20186;-56
2022/07/22 06:38:04;;;;;;;13.30;12.00;;;21.70;1.00;;;;;;5036974;28;20259;-55
2022/07/22 06:40:30;;;;;;;13.30;12.00;;;21.60;1.00;;;;;;5048736;28;20422;-51
2022/07/22 06:42:55;;;;;;;13.80;12.47;;;21.70;1.00;;;;;;5027878;28;20439;-51
2022/07/22 06:45:21;;;;;;;12.00;10.80;;;21.80;1.00;;;;;;5037681;28;20265;-55
2022/07/22 06:47:47;;;;;;;13.00;11.50;;;21.80;1.00;;;;;;5043503;28;20265;-54
2022/07/22 06:50:12;;;;;;;9.90;9.10;;;21.90;1.00;;;;;;5042975;28;20866;-51
2022/07/22 06:52:39;;;;;;;9.90;9.10;;;22.10;1.00;;;;;;5041103;28;20288;-49
2022/07/22 06:55:06;;;;;;;9.53;8.90;;;22.30;37.70;;;;;;5045213;28;20195;-55
2022/07/22 06:57:31;;;;;;;9.20;8.40;;;22.40;36.00;;;;;;5049023;28;20423;-55
2022/07/22 06:59:57;;;;;;;9.50;8.70;;;22.50;19.40;;;;;;5031915;28;20852;-53
2022/07/22 07:02:23;;;;;;;10.03;9.23;;;22.60;1.00;;;;;;5047472;28;20209;-53
2022/07/22 07:04:48;;;;;;;10.40;9.60;;;22.70;1.00;;;;;;5041384;28;20196;-52
2022/07/22 07:07:14;;;;;;;10.40;9.50;;;22.80;99.90;;;;;;5026445;28;20914;-54
2022/07/22 07:09:39;;;;;;;11.30;10.20;;;22.90;99.90;;;;;;5026997;28;20199;-53
2022/07/22 07:12:06;;;;;;;11.03;10.13;;;23.00;35.30;;;;;;5037395;28;20198;-54
2022/07/22 07:14:32;;;;;;;9.60;8.90;;;23.00;99.90;;;;;;5035971;28;20284;-54
2022/07/22 07:16:57;;;;;;;10.87;10.07;;;23.10;99.90;;;;;;5037429;28;20498;-52
2022/07/22 07:19:23;;;;;;;11.63;10.53;;;23.30;1.00;;;;;;5037302;28;20187;-51
2022/07/22 07:21:48;;;;;;;10.67;9.87;;;23.30;1.00;;;;;;5031623;28;20182;-55
2022/07/22 07:24:14;;;;;;;11.73;9.10;;;23.40;1.00;;;;;;5026564;28;20206;-56
2022/07/22 07:26:39;;;;;;;10.37;9.47;;;23.50;11.50;;;;;;5027014;28;20186;-54
2022/07/22 07:29:06;;;;;;;10.43;9.50;;;23.50;1.00;;;;;;5028552;28;20218;-53
2022/07/22 07:31:31;;;;;;;10.17;9.27;;;23.50;1.00;;;;;;5032218;28;20201;-55
2022/07/22 07:33:57;;;;;;;10.37;9.57;;;23.60;99.90;;;;;;5030618;28;21343;-49
2022/07/22 07:36:23;;;;;;;10.07;9.37;;;23.70;99.90;;;;;;5017518;28;20202;-50
2022/07/22 07:38:49;;;;;;;9.77;9.07;;;23.80;12.10;;;;;;5020655;28;20414;-56
2022/07/22 07:41:16;;;;;;;9.77;8.97;;;23.80;1.00;;;;;;5029755;28;20270;-51
2022/07/22 07:43:42;;;;;;;10.00;9.20;;;23.90;99.90;;;;;;5036336;28;20766;-55
2022/07/22 07:46:08;;;;;;;10.63;9.90;;;24.00;99.90;;;;;;5035247;28;20418;-55
2022/07/22 07:48:33;;;;;;;10.30;9.60;;;24.10;99.90;;;;;;5038272;28;20962;-54
2022/07/22 07:50:59;;;;;;;9.67;8.97;;;24.20;1.00;;;;;;5031861;28;20189;-53
2022/07/22 07:53:25;;;;;;;10.03;9.30;;;24.30;99.90;;;;;;5029225;28;20291;-53
2022/07/22 07:55:51;;;;;;;10.13;9.43;;;24.50;99.90;;;;;;5027403;28;20484;-54
2022/07/22 07:58:17;;;;;;;10.03;9.33;;;24.60;99.90;;;;;;5031284;28;20556;-52
2022/07/22 08:00:42;;;;;;;10.30;9.50;;;24.70;1.00;;;;;;5044206;28;20186;-57
2022/07/22 08:03:08;;;;;;;9.53;8.83;;;24.70;99.90;;;;;;5030304;28;20617;-54
2022/07/22 08:05:34;;;;;;;10.47;9.77;;;24.90;99.90;;;;;;5046164;28;20278;-51
2022/07/22 08:08:00;;;;;;;10.53;9.83;;;25.10;1.00;;;;;;5042921;28;20198;-53
2022/07/22 08:10:26;;;;;;;11.70;10.70;;;25.00;1.00;;;;;;5046651;28;20425;-53
2022/07/22 08:12:53;;;;;;;12.47;11.50;;;25.10;1.00;;;;;;5047154;28;20555;-51
2022/07/22 08:15:20;;;;;;;11.40;10.60;;;25.10;99.90;;;;;;5016150;28;20736;-53
2022/07/22 08:17:46;;;;;;;10.70;9.90;;;25.10;99.90;;;;;;5028218;28;20431;-55
2022/07/22 08:20:11;;;;;;;11.90;11.00;;;25.10;1.00;;;;;;5047210;28;20469;-54
2022/07/22 08:22:37;;;;;;;11.00;10.20;;;25.20;1.00;;;;;;5033389;28;20216;-55
2022/07/22 08:25:03;;;;;;;11.70;10.80;;;25.10;1.00;;;;;;5042538;28;20243;-55
2022/07/22 08:27:29;;;;;;;11.20;10.50;;;25.20;99.90;;;;;;5028450;28;20972;-55
2022/07/22 08:29:54;;;;;;;10.90;10.10;;;25.30;99.90;;;;;;5044069;28;20489;-54
2022/07/22 08:32:21;;;;;;;12.43;11.47;;;25.30;99.90;;;;;;5041917;28;20212;-53
2022/07/22 08:34:47;;;;;;;11.40;10.60;;;25.30;99.90;;;;;;5030571;28;20193;-53
2022/07/22 08:37:12;;;;;;;12.10;11.30;;;25.30;1.00;;;;;;5039282;28;20424;-55
2022/07/22 08:39:38;;;;;;;12.17;11.37;;;25.40;99.90;;;;;;5041625;28;20184;-53
2022/07/22 08:42:04;;;;;;;11.27;10.57;;;25.70;11.00;;;;;;5046555;28;20946;-51
2022/07/22 08:44:31;;;;;;;11.77;10.97;;;25.80;1.00;;;;;;5048642;28;20191;-56
2022/07/22 08:46:58;;;;;;;11.70;10.80;;;25.70;1.00;;;;;;5031381;28;20201;-53
2022/07/22 08:49:23;;;;;;;11.33;10.53;;;25.60;55.90;;;;;;5028298;28;20451;-54
2022/07/22 08:51:49;;;;;;;10.87;10.07;;;25.80;99.90;;;;;;5026227;28;20480;-54
2022/07/22 08:54:15;;;;;;;11.83;10.83;;;25.90;99.90;;;;;;5028710;28;20186;-52
2022/07/22 08:56:42;;;;;;;11.10;10.30;;;26.20;89.80;;;;;;5028207;28;20931;-55
2022/07/22 08:59:08;;;;;;;10.70;10.00;;;26.50;14.70;;;;;;5027591;28;20755;-57
2022/07/22 09:01:33;;;;;;;11.90;11.10;;;26.70;1.00;;;;;;5028662;28;20423;-54
2022/07/22 09:03:59;;;;;;;12.80;11.90;;;27.00;1.00;;;;;;5026282;28;20226;-56
2022/07/22 09:06:26;;;;;;;12.27;11.43;;;27.20;1.00;;;;;;5028124;28;20277;-51
2022/07/22 09:08:56;;;;;;;12.40;11.60;;;27.00;1.00;;;;;;5028796;28;20895;-55
2022/07/22 09:11:24;;;;;;;11.60;10.90;;;27.00;1.00;;;;;;5027973;28;20428;-55
2022/07/22 09:13:51;;;;;;;11.80;10.80;;;26.90;1.00;;;;;;5028291;28;20417;-55
2022/07/22 09:16:44;;;;;;;12.17;11.27;;;27.00;1.00;;;;;;5026906;28;20916;-55
2022/07/22 09:19:11;;;;;;;12.33;11.53;;;27.20;1.00;;;;;;5028547;28;20459;-55
2022/07/22 09:21:40;;;;;;;12.87;12.00;;;27.20;1.00;;;;;;5026971;28;20959;-55
2022/07/22 09:24:06;;;;;;;11.47;10.67;;;27.30;1.00;;;;;;5028045;28;20410;-55
2022/07/22 09:26:37;;;;;;;12.87;11.87;;;27.60;1.00;;;;;;5025671;28;20794;-55
2022/07/22 09:29:05;;;;;;;11.67;10.87;;;27.80;99.90;;;;;;5028250;28;20930;-53
2022/07/22 09:31:36;;;;;;;12.60;11.80;;;28.10;99.90;;;;;;5027224;28;20465;-55
2022/07/22 09:34:03;;;;;;;11.77;10.90;;;28.10;99.90;;;;;;5022921;28;20406;-53
2022/07/22 09:36:29;;;;;;;14.20;13.13;;;28.30;99.90;;;;;;5027599;28;20515;-51
2022/07/22 09:38:54;;;;;;;12.60;11.70;;;28.30;99.90;;;;;;5027335;28;20437;-53
2022/07/22 09:41:21;;;;;;;12.63;11.70;;;28.40;99.90;;;;;;5028138;28;20638;-54
2022/07/22 09:43:47;;;;;;;12.60;11.47;;;28.50;99.90;;;;;;5026052;28;20183;-53
2022/07/22 09:46:12;;;;;;;11.27;10.47;;;28.70;99.90;;;;;;5029103;28;20667;-54
2022/07/22 09:48:39;;;;;;;12.10;11.20;;;28.90;99.90;;;;;;5029967;28;20491;-52
2022/07/22 09:51:06;;;;;;;12.10;11.00;;;29.00;99.90;;;;;;5031576;28;20177;-56
2022/07/22 09:53:32;;;;;;;11.07;10.30;;;29.00;99.90;;;;;;5035483;28;20837;-54
2022/07/22 09:56:04;;;;;;;10.80;9.90;;;29.20;99.90;;;;;;5043538;28;20411;-55
2022/07/22 09:58:30;;;;;;;11.10;10.17;;;29.20;99.90;;;;;;5018271;28;20589;-52
2022/07/22 10:01:02;;;;;;;12.10;11.20;;;29.10;99.90;;;;;;5031376;28;20412;-54
2022/07/22 10:03:30;;;;;;;11.27;10.37;;;29.00;99.90;;;;;;5033488;28;20187;-55
2022/07/22 10:05:57;;;;;;;11.20;10.40;;;29.00;99.90;;;;;;5026899;28;20438;-55
2022/07/22 10:08:26;;;;;;;11.50;10.50;;;29.10;99.90;;;;;;5026357;28;20445;-54
2022/07/22 10:10:53;;;;;;;12.07;11.27;;;29.40;99.90;;;;;;5027546;28;20491;-56
2022/07/22 10:13:19;;;;;;;11.40;10.60;;;29.60;99.90;;;;;;5026038;28;20467;-50
2022/07/22 10:15:46;;;;;;;11.93;11.07;;;29.50;99.90;;;;;;5026654;28;20425;-51
2022/07/22 10:18:17;;;;;;;11.40;10.50;;;29.60;99.90;;;;;;5039967;28;20424;-57
2022/07/22 10:20:43;;;;;;;11.30;10.50;;;29.70;99.90;;;;;;5037796;28;20519;-53
2022/07/22 10:23:10;;;;;;;12.97;12.03;;;29.60;99.90;;;;;;5031077;28;20433;-53
2022/07/22 10:25:59;;;;;;;12.90;12.00;;;29.40;99.90;;;;;;5027718;28;20449;-51
2022/07/22 10:28:31;;;;;;;12.57;11.67;;;29.10;99.90;;;;;;5027653;28;20903;-53
2022/07/22 10:31:15;;;;;;;11.80;11.10;;;29.00;99.90;;;;;;5026399;28;20456;-54
2022/07/22 10:33:41;;;;;;;12.37;11.47;;;29.30;99.90;;;;;;5026527;28;20457;-51
2022/07/22 10:36:08;;;;;;;11.97;11.07;;;29.50;99.90;;;;;;5032709;28;20456;-56
2022/07/22 10:38:34;;;;;;;12.17;11.37;;;29.60;99.90;;;;;;5039194;28;20178;-53
2022/07/22 10:41:03;;;;;;;11.13;10.33;;;29.60;99.90;;;;;;5026776;28;20453;-56
2022/07/22 10:43:47;;;;;;;12.00;11.20;;;29.70;99.90;;;;;;5047267;28;20202;-54
2022/07/22 10:46:13;;;;;;;12.00;11.20;;;29.80;99.90;;;;;;5028382;28;20445;-54
2022/07/22 10:48:39;;;;;;;12.10;11.07;;;29.70;99.90;;;;;;5033895;28;20478;-56
2022/07/22 10:51:16;;;;;;;13.60;12.60;;;29.50;99.90;;;;;;5033716;28;20869;-55
2022/07/22 10:53:56;;;;;;;12.30;11.50;;;29.30;99.90;;;;;;5035527;28;20672;-54
2022/07/22 10:56:27;;;;;;;12.00;11.20;;;29.20;99.90;;;;;;5031339;28;20787;-56
2022/07/22 10:58:58;;;;;;;12.70;11.80;;;29.20;99.90;;;;;;5037544;28;20453;-52
2022/07/22 11:01:30;;;;;;;11.63;10.83;;;29.30;99.90;;;;;;5030267;28;20433;-55
2022/07/22 11:04:05;;;;;;;12.47;11.47;;;29.40;99.90;;;;;;5050233;28;20439;-56
2022/07/22 11:06:31;;;;;;;11.33;10.53;;;29.60;99.90;;;;;;5036113;28;20482;-56
2022/07/22 11:08:58;;;;;;;11.50;10.80;;;29.80;99.90;;;;;;5029434;28;20456;-57
2022/07/22 11:11:41;;;;;;;11.50;10.70;;;29.90;99.90;;;;;;5027360;28;20181;-56
2022/07/22 11:14:27;;;;;;;11.37;10.67;;;30.00;99.90;;;;;;5028077;28;20516;-56
2022/07/22 11:16:55;;;;;;;11.00;10.40;;;30.30;99.90;;;;;;5020348;28;20412;-53
2022/07/22 11:19:26;;;;;;;11.87;10.93;;;30.40;99.90;;;;;;5013864;28;21052;-57
2022/07/22 11:21:58;;;;;;;12.43;11.40;;;30.60;99.90;;;;;;5015048;28;20927;-56
2022/07/22 11:24:25;;;;;;;11.83;10.97;;;30.80;99.90;;;;;;5013114;28;21126;-52
2022/07/22 11:26:53;;;;;;;11.13;10.23;;;30.80;99.90;;;;;;5013775;28;20427;-55
2022/07/22 11:29:34;;;;;;;11.07;10.30;;;30.70;99.90;;;;;;5022029;28;20904;-56
2022/07/22 11:32:01;;;;;;;10.73;10.03;;;30.80;99.90;;;;;;5044022;28;20474;-55
2022/07/22 11:34:28;;;;;;;10.83;10.13;;;30.80;99.90;;;;;;5028459;28;20456;-55
2022/07/22 11:36:54;;;;;;;11.90;10.90;;;31.00;99.90;;;;;;5023012;28;20448;-51
2022/07/22 11:39:23;;;;;;;10.93;10.20;;;31.10;99.90;;;;;;5028435;28;20414;-53
2022/07/22 11:41:51;;;;;;;13.17;11.93;;;31.20;99.90;;;;;;5040832;28;20487;-53
2022/07/22 11:44:22;;;;;;;11.10;10.40;;;31.30;99.90;;;;;;5034232;28;20441;-54
2022/07/22 11:46:49;;;;;;;11.30;10.50;;;31.50;99.90;;;;;;5043310;28;20461;-54
2022/07/22 11:49:16;;;;;;;11.73;10.90;;;31.60;99.90;;;;;;5032704;28;20429;-55
2022/07/22 11:51:42;;;;;;;11.30;10.30;;;31.60;99.90;;;;;;5035184;28;20457;-53
2022/07/22 11:54:09;;;;;;;11.50;10.80;;;31.70;99.90;;;;;;5049908;28;20442;-54
2022/07/22 11:56:36;;;;;;;10.80;10.00;;;31.90;99.90;;;;;;5040455;28;20179;-54
2022/07/22 11:59:06;;;;;;;11.30;10.60;;;31.90;99.90;;;;;;5037264;28;20819;-56
2022/07/22 12:01:34;;;;;;;12.00;11.20;;;32.00;99.90;;;;;;5045679;28;20540;-55
2022/07/22 12:04:08;;;;;;;11.10;10.30;;;31.80;99.90;;;;;;5041383;28;20501;-56
2022/07/22 12:06:38;;;;;;;10.80;9.90;;;31.80;99.90;;;;;;5027443;28;20439;-55
2022/07/22 12:09:21;;;;;;;10.97;10.27;;;31.80;99.90;;;;;;5032514;28;20437;-57
2022/07/22 12:11:49;;;;;;;10.90;10.20;;;31.80;99.90;;;;;;5022453;28;20600;-49
2022/07/22 12:14:20;;;;;;;11.77;11.07;;;31.80;99.90;;;;;;5047957;28;20428;-52
2022/07/22 12:17:00;;;;;;;11.50;10.80;;;31.80;99.90;;;;;;5048748;28;20425;-57
2022/07/22 12:19:29;;;;;;;10.30;9.70;;;32.00;99.90;;;;;;5035111;28;20437;-55
2022/07/22 12:21:57;;;;;;;10.80;10.07;;;32.00;99.90;;;;;;5041338;28;20429;-52
2022/07/22 12:24:34;;;;;;;10.40;9.70;;;32.00;99.90;;;;;;5033009;28;20433;-50
2022/07/22 12:27:20;;;;;;;11.10;10.50;;;31.80;99.90;;;;;;5032254;28;20448;-53
2022/07/22 12:29:47;;;;;;;11.07;10.13;;;31.80;99.90;;;;;;5027366;28;20449;-58